createdAt,value
2022-08-21T00:01:27.093Z,19.19
2022-08-21T00:03:55.730Z,19.33
2022-08-21T00:06:29.108Z,19.15
2022-08-21T00:09:00.838Z,19.29
2022-08-21T00:11:32.578Z,19.00
2022-08-21T00:14:00.684Z,19.05
2022-08-21T00:16:28.925Z,18.94
2022-08-21T00:18:57.032Z,19.37
2022-08-21T00:21:26.208Z,19.37
2022-08-21T00:23:55.498Z,19.39
2022-08-21T00:26:24.997Z,19.35
2022-08-21T00:28:53.073Z,19.30
2022-08-21T00:31:21.464Z,19.33
2022-08-21T00:33:51.032Z,19.18
2022-08-21T00:36:19.503Z,19.13
2022-08-21T00:38:47.566Z,19.21
2022-08-21T00:41:37.221Z,19.22
2022-08-21T00:44:05.924Z,19.48
2022-08-21T00:46:34.033Z,19.55
2022-08-21T00:49:02.234Z,19.59
2022-08-21T00:51:38.406Z,19.30
2022-08-21T00:54:18.430Z,19.37
2022-08-21T00:56:48.553Z,19.45
2022-08-21T00:59:18.482Z,19.35
2022-08-21T01:01:47.233Z,19.40
2022-08-21T01:04:17.280Z,19.50
2022-08-21T01:06:45.868Z,19.51
2022-08-21T01:09:14.567Z,19.41
2022-08-21T01:11:44.487Z,19.43
2022-08-21T01:14:13.218Z,19.61
2022-08-21T01:16:43.031Z,19.41
2022-08-21T01:19:12.169Z,19.50
2022-08-21T01:21:41.963Z,19.54
2022-08-21T01:24:12.667Z,19.65
2022-08-21T01:26:41.772Z,19.52
2022-08-21T01:29:15.072Z,19.50
2022-08-21T01:31:43.363Z,19.61
2022-08-21T01:34:12.801Z,19.60
2022-08-21T01:36:42.351Z,19.49
2022-08-21T01:39:11.179Z,19.51
2022-08-21T01:41:39.314Z,19.24
2022-08-21T01:44:07.377Z,19.44
2022-08-21T01:46:37.600Z,19.40
2022-08-21T01:49:06.320Z,19.47
2022-08-21T01:51:34.737Z,19.29
2022-08-21T01:54:04.658Z,19.26
2022-08-21T01:56:38.211Z,19.34
2022-08-21T01:59:06.617Z,19.18
2022-08-21T02:01:34.821Z,19.10
2022-08-21T02:04:03.038Z,19.04
2022-08-21T02:06:31.384Z,19.03
2022-08-21T02:08:59.601Z,19.10
2022-08-21T02:11:29.104Z,19.17
2022-08-21T02:13:57.164Z,19.26
2022-08-21T02:16:25.373Z,19.06
2022-08-21T02:18:55.917Z,19.03
2022-08-21T02:21:24.018Z,18.95
2022-08-21T02:23:52.212Z,19.03
2022-08-21T02:26:20.478Z,18.96
2022-08-21T02:28:50.294Z,19.02
2022-08-21T02:31:18.583Z,19.02
2022-08-21T02:33:46.740Z,18.98
2022-08-21T02:36:15.016Z,19.06
2022-08-21T02:38:44.062Z,18.99
2022-08-21T02:41:14.890Z,19.02
2022-08-21T02:43:43.574Z,19.05
2022-08-21T02:46:14.851Z,19.10
2022-08-21T02:48:43.299Z,18.86
2022-08-21T02:51:14.534Z,19.21
2022-08-21T02:53:42.912Z,19.09
2022-08-21T02:56:14.196Z,19.12
2022-08-21T02:58:47.015Z,19.31
2022-08-21T03:01:17.001Z,18.98
2022-08-21T03:03:48.238Z,19.21
2022-08-21T03:06:17.843Z,18.95
2022-08-21T03:08:46.931Z,18.88
2022-08-21T03:11:16.165Z,19.04
2022-08-21T03:13:44.869Z,19.02
2022-08-21T03:16:12.972Z,19.02
2022-08-21T03:18:42.603Z,19.15
2022-08-21T03:21:10.773Z,19.18
2022-08-21T03:23:40.774Z,19.30
2022-08-21T03:26:09.044Z,19.30
2022-08-21T03:28:37.334Z,19.29
2022-08-21T03:31:06.443Z,19.09
2022-08-21T03:33:34.671Z,19.22
2022-08-21T03:36:08.337Z,19.31
2022-08-21T03:38:38.176Z,19.50
2022-08-21T03:41:08.322Z,19.30
2022-08-21T03:43:36.575Z,19.32
2022-08-21T03:46:05.991Z,19.19
2022-08-21T03:48:34.805Z,19.24
2022-08-21T03:51:04.514Z,19.26
2022-08-21T03:53:32.696Z,19.25
2022-08-21T03:56:00.966Z,19.31
2022-08-21T03:58:29.888Z,19.22
2022-08-21T04:01:00.551Z,19.10
2022-08-21T04:03:29.546Z,19.35
2022-08-21T04:05:57.793Z,19.13
2022-08-21T04:08:27.408Z,19.40
2022-08-21T04:11:00.506Z,19.40
2022-08-21T04:13:29.327Z,19.13
2022-08-21T04:15:59.111Z,19.42
2022-08-21T04:18:27.194Z,19.46
2022-08-21T04:20:56.164Z,19.46
2022-08-21T04:23:24.899Z,19.46
2022-08-21T04:25:57.996Z,19.43
2022-08-21T04:28:29.119Z,19.45
2022-08-21T04:30:58.928Z,19.59
2022-08-21T04:33:30.271Z,19.53
2022-08-21T04:35:58.425Z,19.58
2022-08-21T04:38:27.352Z,19.33
2022-08-21T04:41:07.537Z,19.48
2022-08-21T04:43:35.883Z,19.39
2022-08-21T04:46:04.022Z,19.50
2022-08-21T04:48:32.221Z,19.51
2022-08-21T04:51:04.160Z,19.48
2022-08-21T04:53:38.178Z,19.43
2022-08-21T04:56:16.633Z,19.46
2022-08-21T04:58:45.136Z,19.36
2022-08-21T05:01:18.103Z,19.41
2022-08-21T05:03:46.723Z,19.32
2022-08-21T05:06:15.226Z,19.44
2022-08-21T05:08:44.624Z,19.26
2022-08-21T05:11:16.710Z,19.34
2022-08-21T05:13:47.982Z,19.32
2022-08-21T05:16:30.320Z,19.22
2022-08-21T05:19:06.141Z,19.59
2022-08-21T05:21:34.854Z,19.63
2022-08-21T05:24:03.508Z,19.66
2022-08-21T05:26:33.224Z,19.62
2022-08-21T05:29:12.331Z,19.46
2022-08-21T05:31:41.339Z,19.67
2022-08-21T05:34:11.069Z,19.83
2022-08-21T05:36:39.334Z,19.93
2022-08-21T05:39:07.419Z,19.79
2022-08-21T05:41:36.973Z,19.95
2022-08-21T05:44:11.428Z,19.91
2022-08-21T05:46:40.037Z,19.84
2022-08-21T05:49:08.590Z,20.08
2022-08-21T05:51:36.875Z,19.68
2022-08-21T05:54:05.347Z,19.73
2022-08-21T05:56:33.436Z,19.81
2022-08-21T05:59:02.883Z,20.01
2022-08-21T06:01:37.051Z,19.84
2022-08-21T06:04:05.638Z,19.87
2022-08-21T06:06:33.722Z,19.95
2022-08-21T06:09:02.029Z,20.15
2022-08-21T06:11:30.415Z,20.09
2022-08-21T06:13:58.906Z,20.12
2022-08-21T06:16:30.455Z,20.17
2022-08-21T06:19:02.618Z,20.16
2022-08-21T06:21:31.490Z,20.27
2022-08-21T06:23:59.760Z,20.20
2022-08-21T06:26:29.103Z,20.20
2022-08-21T06:28:57.206Z,20.27
2022-08-21T06:31:27.834Z,20.27
2022-08-21T06:33:57.378Z,20.37
2022-08-21T06:36:25.608Z,20.51
2022-08-21T06:38:53.779Z,20.39
2022-08-21T06:41:24.071Z,20.48
2022-08-21T06:43:54.938Z,20.38
2022-08-21T06:46:23.217Z,20.45
2022-08-21T06:48:51.320Z,20.31
2022-08-21T06:51:20.960Z,20.44
2022-08-21T06:53:48.990Z,20.41
2022-08-21T06:56:17.112Z,20.47
2022-08-21T06:58:45.172Z,20.28
2022-08-21T07:01:14.354Z,20.47
2022-08-21T07:03:44.135Z,20.40
2022-08-21T07:06:13.679Z,20.54
2022-08-21T07:08:43.186Z,20.53
2022-08-21T07:11:15.448Z,20.48
2022-08-21T07:13:43.479Z,20.48
2022-08-21T07:16:11.593Z,20.45
2022-08-21T07:18:39.784Z,20.58
2022-08-21T07:21:09.046Z,20.45
2022-08-21T07:23:39.937Z,20.55
2022-08-21T07:26:09.463Z,20.47
2022-08-21T07:28:38.111Z,20.63
2022-08-21T07:31:06.879Z,20.64
2022-08-21T07:33:37.113Z,20.57
2022-08-21T07:36:05.723Z,20.50
2022-08-21T07:38:33.841Z,20.41
2022-08-21T07:41:03.390Z,20.58
2022-08-21T07:43:36.076Z,20.55
2022-08-21T07:46:05.949Z,20.50
2022-08-21T07:48:35.277Z,20.29
2022-08-21T07:51:08.568Z,20.41
2022-08-21T07:53:36.854Z,20.31
2022-08-21T07:56:05.868Z,20.18
2022-08-21T07:58:35.399Z,20.09
2022-08-21T08:01:04.558Z,20.15
2022-08-21T08:03:32.777Z,20.14
2022-08-21T08:06:00.916Z,20.34
2022-08-21T08:08:30.083Z,20.12
2022-08-21T08:10:59.047Z,20.19
2022-08-21T08:13:27.205Z,20.07
2022-08-21T08:15:56.814Z,20.13
2022-08-21T08:18:24.928Z,20.06
2022-08-21T08:20:53.341Z,20.13
2022-08-21T08:23:21.903Z,20.09
2022-08-21T08:25:49.970Z,20.20
2022-08-21T08:28:18.198Z,20.26
2022-08-21T08:30:46.801Z,20.41
2022-08-21T08:33:17.417Z,20.37
2022-08-21T08:35:48.592Z,20.39
2022-08-21T08:38:20.760Z,20.36
2022-08-21T08:40:55.369Z,20.39
2022-08-21T08:43:23.728Z,20.45
2022-08-21T08:45:53.459Z,20.52
2022-08-21T08:48:34.306Z,20.57
2022-08-21T08:51:03.835Z,20.74
2022-08-21T08:53:35.532Z,20.90
2022-08-21T08:56:04.731Z,20.90
2022-08-21T08:58:34.894Z,21.07
2022-08-21T09:01:03.929Z,21.27
2022-08-21T09:03:33.486Z,21.07
2022-08-21T09:06:05.568Z,21.11
2022-08-21T09:08:50.659Z,21.03
2022-08-21T09:11:27.989Z,21.04
2022-08-21T09:14:07.694Z,21.05
2022-08-21T09:16:43.283Z,20.83
2022-08-21T09:19:25.084Z,20.76
2022-08-21T09:21:57.554Z,20.88
2022-08-21T09:24:34.384Z,21.01
2022-08-21T09:27:07.274Z,21.02
2022-08-21T09:29:40.864Z,20.79
2022-08-21T09:32:18.547Z,20.79
2022-08-21T09:35:00.291Z,20.43
2022-08-21T09:37:30.843Z,20.60
2022-08-21T09:40:00.627Z,20.58
2022-08-21T09:42:33.086Z,20.55
2022-08-21T09:45:14.937Z,20.72
2022-08-21T09:47:49.143Z,20.82
2022-08-21T09:50:26.902Z,20.89
2022-08-21T09:53:09.023Z,21.00
2022-08-21T09:56:18.149Z,21.46
2022-08-21T09:58:52.507Z,21.65
2022-08-21T10:01:23.181Z,21.67
2022-08-21T10:04:05.998Z,21.58
2022-08-21T10:06:47.711Z,21.68
2022-08-21T10:09:21.919Z,21.61
2022-08-21T10:12:11.169Z,21.75
2022-08-21T10:14:52.942Z,21.83
2022-08-21T10:17:39.454Z,21.28
2022-08-21T10:20:13.506Z,21.37
2022-08-21T10:22:50.964Z,21.28
2022-08-21T10:25:30.311Z,21.18
2022-08-21T10:28:15.394Z,20.93
2022-08-21T10:30:51.234Z,20.96
2022-08-21T10:33:31.318Z,20.98
2022-08-21T10:36:12.867Z,20.86
2022-08-21T10:39:35.175Z,20.61
2022-08-21T10:42:35.822Z,20.33
2022-08-21T10:45:20.395Z,20.49
2022-08-21T10:47:54.926Z,20.76
2022-08-21T10:50:34.893Z,20.60
2022-08-21T10:53:17.826Z,20.76
2022-08-21T10:56:05.300Z,20.76
2022-08-21T10:58:39.653Z,20.61
2022-08-21T11:01:16.474Z,20.52
2022-08-21T11:03:50.384Z,20.43
2022-08-21T11:06:24.555Z,20.38
2022-08-21T11:09:03.178Z,20.50
2022-08-21T11:11:50.604Z,20.67
2022-08-21T11:14:51.146Z,20.60
2022-08-21T11:17:26.186Z,20.53
2022-08-21T11:20:15.338Z,20.82
2022-08-21T11:22:54.957Z,21.01
2022-08-21T11:25:37.016Z,21.11
2022-08-21T11:28:14.865Z,21.21
2022-08-21T11:30:54.078Z,21.03
2022-08-21T11:33:37.693Z,21.08
2022-08-21T11:36:18.300Z,21.31
2022-08-21T11:38:51.301Z,21.24
2022-08-21T11:41:32.612Z,21.42
2022-08-21T11:44:19.024Z,21.65
2022-08-21T11:46:56.413Z,21.65
2022-08-21T11:49:41.452Z,21.22
2022-08-21T11:52:19.356Z,21.15
2022-08-21T11:54:52.495Z,21.34
2022-08-21T11:57:26.692Z,21.17
2022-08-21T12:00:15.332Z,21.13
2022-08-21T12:03:00.355Z,21.27
2022-08-21T12:05:39.534Z,21.37
2022-08-21T12:08:14.896Z,21.42
2022-08-21T12:10:49.295Z,21.61
2022-08-21T12:13:40.441Z,21.17
2022-08-21T12:19:35.190Z,21.41
2022-08-21T12:22:12.505Z,21.35
2022-08-21T12:24:54.732Z,21.34
2022-08-21T12:27:32.091Z,21.21
2022-08-21T12:30:05.571Z,21.20
2022-08-21T12:32:47.680Z,21.21
2022-08-21T12:35:24.644Z,20.86
2022-08-21T12:38:01.874Z,20.58
2022-08-21T12:40:39.975Z,20.49
2022-08-21T12:43:18.023Z,20.59
2022-08-21T12:45:51.969Z,20.53
2022-08-21T12:48:26.280Z,20.46
2022-08-21T12:50:57.836Z,20.44
2022-08-21T12:53:55.323Z,20.46
2022-08-21T12:56:27.324Z,20.59
2022-08-21T12:59:05.422Z,20.41
2022-08-21T13:01:51.322Z,20.45
2022-08-21T13:04:43.320Z,20.52
2022-08-21T13:07:19.045Z,20.43
2022-08-21T13:09:58.702Z,20.71
2022-08-21T13:12:29.510Z,20.63
2022-08-21T13:15:08.960Z,20.79
2022-08-21T13:17:45.703Z,20.80
2022-08-21T13:20:34.627Z,20.59
2022-08-21T13:23:06.153Z,20.63
2022-08-21T13:25:46.143Z,20.74
2022-08-21T13:28:18.025Z,20.64
2022-08-21T13:30:53.386Z,20.60
2022-08-21T13:33:37.313Z,20.71
2022-08-21T13:36:31.214Z,20.68
2022-08-21T13:39:01.618Z,20.89
2022-08-21T13:41:35.126Z,20.62
2022-08-21T13:44:17.166Z,20.87
2022-08-21T13:47:07.096Z,20.86
2022-08-21T13:49:39.448Z,20.98
2022-08-21T13:52:23.673Z,20.77
2022-08-21T13:54:59.322Z,20.89
2022-08-21T13:57:30.949Z,20.76
2022-08-21T14:00:22.240Z,20.95
2022-08-21T14:02:52.731Z,20.79
2022-08-21T14:05:29.784Z,20.77
2022-08-21T14:08:10.946Z,20.74
2022-08-21T14:10:44.967Z,20.98
2022-08-21T14:13:32.799Z,21.06
2022-08-21T14:16:10.986Z,21.09
2022-08-21T14:18:50.319Z,21.23
2022-08-21T14:21:36.570Z,21.24
2022-08-21T14:24:35.748Z,21.46
2022-08-21T14:27:08.703Z,21.37
2022-08-21T14:29:42.052Z,21.23
2022-08-21T14:32:25.042Z,21.40
2022-08-21T14:35:03.854Z,21.53
2022-08-21T14:37:33.936Z,21.35
2022-08-21T14:40:09.647Z,21.29
2022-08-21T14:42:38.449Z,21.54
2022-08-21T14:45:24.775Z,21.32
2022-08-21T14:48:00.243Z,21.42
2022-08-21T14:50:29.932Z,21.26
2022-08-21T14:53:00.604Z,21.19
2022-08-21T14:56:03.182Z,21.43
2022-08-21T14:58:34.020Z,21.45
2022-08-21T15:01:07.340Z,21.46
2022-08-21T15:03:47.289Z,21.44
2022-08-21T15:06:23.264Z,21.27
2022-08-21T15:08:59.899Z,21.33
2022-08-21T15:11:41.750Z,21.14
2022-08-21T15:14:18.844Z,21.33
2022-08-21T15:16:48.782Z,21.35
2022-08-21T15:19:20.204Z,21.35
2022-08-21T15:21:52.744Z,21.53
2022-08-21T15:24:22.222Z,21.34
2022-08-21T15:26:59.992Z,21.44
2022-08-21T15:29:37.688Z,21.54
2022-08-21T15:32:23.951Z,21.42
2022-08-21T15:35:04.819Z,21.62
2022-08-21T15:37:36.504Z,21.44
2022-08-21T15:40:09.685Z,21.60
2022-08-21T15:42:48.169Z,21.52
2022-08-21T15:45:22.933Z,21.56
2022-08-21T15:47:55.128Z,21.61
2022-08-21T15:50:28.054Z,21.64
2022-08-21T15:52:58.655Z,21.49
2022-08-21T15:55:27.829Z,21.50
2022-08-21T15:58:05.770Z,21.50
2022-08-21T16:00:37.629Z,21.61
2022-08-21T16:03:08.505Z,21.50
2022-08-21T16:05:40.119Z,21.48
2022-08-21T16:08:15.309Z,21.54
2022-08-21T16:10:46.967Z,21.59
2022-08-21T16:13:26.465Z,21.54
2022-08-21T16:15:57.441Z,21.65
2022-08-21T16:18:26.934Z,21.56
2022-08-21T16:20:55.097Z,21.56
2022-08-21T16:23:25.692Z,21.50
2022-08-21T16:25:56.945Z,21.55
2022-08-21T16:28:33.057Z,21.40
2022-08-21T16:31:02.204Z,21.30
2022-08-21T16:33:37.954Z,21.28
2022-08-21T16:36:12.524Z,21.31
2022-08-21T16:38:45.636Z,21.46
2022-08-21T16:41:17.567Z,21.20
2022-08-21T16:43:51.451Z,21.21
2022-08-21T16:46:22.391Z,21.27
2022-08-21T16:48:51.306Z,21.46
2022-08-21T16:51:22.020Z,21.26
2022-08-21T16:53:55.951Z,21.28
2022-08-21T16:56:26.731Z,21.31
2022-08-21T16:59:05.285Z,21.18
2022-08-21T17:01:35.050Z,21.42
2022-08-21T17:04:05.736Z,21.37
2022-08-21T17:06:38.059Z,21.53
2022-08-21T17:09:09.473Z,21.51
2022-08-21T17:11:44.187Z,21.54
2022-08-21T17:14:17.334Z,21.45
2022-08-21T17:16:47.685Z,21.53
2022-08-21T17:19:21.374Z,21.49
2022-08-21T17:21:54.933Z,21.55
2022-08-21T17:24:32.409Z,21.22
2022-08-21T17:27:05.263Z,21.46
2022-08-21T17:29:42.701Z,21.35
2022-08-21T17:32:14.438Z,21.48
2022-08-21T17:34:43.221Z,21.53
2022-08-21T17:37:12.931Z,21.48
2022-08-21T17:39:43.858Z,21.38
2022-08-21T17:42:23.144Z,21.54
2022-08-21T17:45:03.174Z,21.53
2022-08-21T17:47:32.725Z,21.68
2022-08-21T17:50:01.176Z,21.78
2022-08-21T17:52:31.334Z,21.67
2022-08-21T17:55:07.184Z,21.64
2022-08-21T17:57:36.801Z,21.70
2022-08-21T18:00:09.181Z,21.65
2022-08-21T18:03:02.398Z,21.62
2022-08-21T18:05:33.260Z,21.58
2022-08-21T18:08:08.777Z,21.61
2022-08-21T18:10:38.407Z,21.61
2022-08-21T18:13:13.507Z,21.70
2022-08-21T18:16:00.247Z,21.82
2022-08-21T18:18:52.883Z,21.62
2022-08-21T18:21:23.525Z,21.61
2022-08-21T18:23:52.455Z,21.72
2022-08-21T18:26:27.737Z,21.49
2022-08-21T18:29:00.457Z,21.53
2022-08-21T18:31:32.454Z,21.65
2022-08-21T18:34:04.931Z,21.63
2022-08-21T18:36:33.555Z,21.48
2022-08-21T18:39:34.502Z,21.53
2022-08-21T18:41:56.556Z,21.60
2022-08-21T18:44:29.045Z,21.61
2022-08-21T18:47:05.528Z,21.42
2022-08-21T18:49:42.205Z,21.63
2022-08-21T18:52:20.234Z,21.57
2022-08-21T18:54:55.163Z,21.46
2022-08-21T18:57:25.142Z,21.51
2022-08-21T18:59:55.290Z,21.41
2022-08-21T19:02:25.523Z,21.48
2022-08-21T19:04:57.599Z,21.46
2022-08-21T19:07:46.164Z,21.37
2022-08-21T19:10:28.154Z,21.35
2022-08-21T19:13:07.784Z,21.26
2022-08-21T19:15:50.374Z,21.26
2022-08-21T19:18:32.584Z,21.27
2022-08-21T19:21:05.707Z,21.32
2022-08-21T19:23:45.742Z,21.27
2022-08-21T19:26:16.955Z,21.44
2022-08-21T19:28:54.518Z,21.39
2022-08-21T19:31:51.973Z,21.17
2022-08-21T19:34:51.213Z,21.28
2022-08-21T19:37:23.335Z,21.21
2022-08-21T19:40:01.149Z,21.34
2022-08-21T19:42:34.085Z,21.12
2022-08-21T19:48:13.819Z,21.31
2022-08-21T19:50:47.943Z,21.03
2022-08-21T19:53:27.246Z,21.29
2022-08-21T19:56:07.749Z,21.02
2022-08-21T19:58:55.333Z,21.11
2022-08-21T20:01:30.361Z,21.14
2022-08-21T20:04:19.265Z,21.18
2022-08-21T20:07:26.810Z,21.22
2022-08-21T20:10:02.696Z,21.11
2022-08-21T20:12:34.040Z,20.80
2022-08-21T20:15:15.918Z,20.85
2022-08-21T20:17:56.373Z,20.63
2022-08-21T20:20:31.896Z,20.25
2022-08-21T20:23:29.961Z,20.32
2022-08-21T20:26:25.205Z,20.44
2022-08-21T20:28:57.188Z,19.97
2022-08-21T20:31:32.158Z,19.69
2022-08-21T20:34:15.978Z,19.70
2022-08-21T20:37:00.808Z,19.86
2022-08-21T20:39:36.992Z,19.70
2022-08-21T20:42:11.148Z,19.52
2022-08-21T20:45:08.025Z,19.61
2022-08-21T20:47:52.530Z,19.69
2022-08-21T20:50:29.690Z,19.70
2022-08-21T20:53:16.790Z,19.64
2022-08-21T20:56:01.250Z,19.69
2022-08-21T20:58:39.294Z,19.50
2022-08-21T21:01:26.265Z,19.37
2022-08-21T21:04:04.523Z,19.29
2022-08-21T21:09:55.614Z,19.22
2022-08-21T21:15:33.793Z,19.19
2022-08-21T21:18:14.239Z,19.29
2022-08-21T21:20:51.078Z,19.38
2022-08-21T21:23:30.865Z,19.37
2022-08-21T21:26:07.412Z,19.17
2022-08-21T21:28:53.836Z,19.14
2022-08-21T21:31:25.546Z,18.98
2022-08-21T21:33:58.479Z,19.09
2022-08-21T21:36:37.908Z,19.06
2022-08-21T21:39:16.429Z,19.27
2022-08-21T21:41:58.002Z,19.07
2022-08-21T21:44:53.349Z,19.13
2022-08-21T21:47:39.561Z,18.87
2022-08-21T21:50:25.105Z,18.95
2022-08-21T21:56:15.396Z,18.85
2022-08-21T21:59:09.860Z,18.86
2022-08-21T22:01:52.209Z,18.96
2022-08-21T22:04:31.996Z,18.91
2022-08-21T22:07:11.031Z,18.94
2022-08-21T22:09:46.616Z,18.90
2022-08-21T22:12:28.644Z,18.81
2022-08-21T22:15:01.220Z,18.81
2022-08-21T22:17:48.478Z,18.94
2022-08-21T22:20:25.875Z,18.85
2022-08-21T22:22:57.737Z,18.71
2022-08-21T22:25:34.469Z,18.90
2022-08-21T22:28:08.049Z,18.73
2022-08-21T22:30:46.933Z,18.77
2022-08-21T22:33:23.689Z,18.74
2022-08-21T22:35:57.463Z,18.79
2022-08-21T22:38:36.198Z,18.85
2022-08-21T22:41:18.324Z,18.82
2022-08-21T22:43:59.869Z,18.76
2022-08-21T22:46:37.528Z,18.97
2022-08-21T22:49:16.659Z,18.79
2022-08-21T22:51:59.593Z,18.95
2022-08-21T22:54:35.076Z,18.86
2022-08-21T22:57:11.667Z,18.82
2022-08-21T22:59:52.642Z,18.89
2022-08-21T23:02:32.202Z,18.59
2022-08-21T23:05:10.329Z,18.68
2022-08-21T23:07:43.042Z,18.61
2022-08-21T23:13:19.091Z,18.60
2022-08-21T23:15:53.333Z,18.35
2022-08-21T23:18:31.428Z,18.49
2022-08-21T23:21:06.553Z,18.44
2022-08-21T23:23:41.757Z,18.27
2022-08-21T23:26:18.401Z,18.49
2022-08-21T23:29:04.862Z,18.06
2022-08-21T23:31:41.658Z,18.01
2022-08-21T23:34:20.870Z,18.18
2022-08-21T23:37:23.153Z,18.24
2022-08-21T23:40:09.732Z,18.04
2022-08-21T23:43:02.225Z,18.01
2022-08-21T23:45:38.399Z,18.15
2022-08-21T23:51:11.297Z,18.02
2022-08-21T23:53:50.680Z,18.01
2022-08-21T23:56:30.740Z,18.05
2022-08-21T23:59:05.336Z,18.12
